Time;durP1;ratioP1;P1;durP2;ratioP2;P2;SDS_P1;SDS_P2;PMS_P1;PMS_P2;Temp;Humidity;BMP_temperature;BMP_pressure;BME280_temperature;BME280_humidity;BME280_pressure;Samples;Min_cycle;Max_cycle;Signal;HPM_P1;HPM_P2
2021/07/22 00:00:33;;;;;;;;;15.00;15.00;;;;;;;;5013872;27;46451;-78
2021/07/22 00:02:59;;;;;;;;;15.33;15.33;;;;;;;;5034085;27;45333;-78
2021/07/22 00:05:24;;;;;;;;;22.67;17.33;;;;;;;;5038098;27;45382;-78
2021/07/22 00:07:49;;;;;;;;;22.00;16.00;;;;;;;;5014592;28;45424;-78
2021/07/22 00:10:15;;;;;;;;;20.67;17.00;;;;;;;;5032648;27;45559;-77
2021/07/22 00:12:40;;;;;;;;;19.00;15.25;;;;;;;;5038634;28;45327;-78
2021/07/22 00:15:06;;;;;;;;;20.75;17.75;;;;;;;;5042322;28;45524;-78
2021/07/22 00:17:31;;;;;;;;;16.75;13.50;;;;;;;;5037521;28;45653;-78
2021/07/22 00:19:57;;;;;;;;;21.00;12.75;;;;;;;;5035699;27;45860;-78
2021/07/22 00:22:22;;;;;;;;;19.00;16.67;;;;;;;;5037814;27;45610;-79
2021/07/22 00:24:47;;;;;;;;;18.00;14.67;;;;;;;;5034744;28;45559;-78
2021/07/22 00:27:16;;;;;;;;;20.00;14.67;;;;;;;;5034670;27;45430;-78
2021/07/22 00:29:41;;;;;;;;;21.50;20.00;;;;;;;;5016543;27;47346;-78
2021/07/22 00:32:07;;;;;;;;;18.00;17.00;;;;;;;;5038083;27;45357;-77
2021/07/22 00:34:32;;;;;;;;;22.00;16.33;;;;;;;;5034957;27;45481;-78
2021/07/22 00:36:57;;;;;;;;;19.67;16.00;;;;;;;;5020415;28;45451;-78
2021/07/22 00:39:22;;;;;;;;;19.67;18.00;;;;;;;;5014491;27;46085;-77
2021/07/22 00:41:47;;;;;;;;;24.00;17.00;;;;;;;;5036038;27;45582;-78
2021/07/22 00:44:13;;;;;;;;;22.33;15.67;;;;;;;;5014534;28;45511;-78
2021/07/22 00:46:38;;;;;;;;;17.00;16.67;;;;;;;;5019301;27;45782;-78
2021/07/22 00:49:07;;;;;;;;;18.00;17.00;;;;;;;;5037999;28;45444;-77
2021/07/22 00:51:32;;;;;;;;;24.25;18.25;;;;;;;;5015356;27;45873;-77
2021/07/22 00:53:57;;;;;;;;;18.67;17.00;;;;;;;;5030780;27;45438;-79
2021/07/22 00:56:23;;;;;;;;;19.00;16.67;;;;;;;;5038830;27;45351;-77
2021/07/22 00:58:48;;;;;;;;;20.33;16.33;;;;;;;;5036218;27;46258;-78
2021/07/22 01:01:13;;;;;;;;;20.33;16.33;;;;;;;;5039330;27;45607;-78
2021/07/22 01:03:39;;;;;;;;;24.25;17.75;;;;;;;;5035030;28;45432;-78
2021/07/22 01:06:04;;;;;;;;;19.75;16.25;;;;;;;;5034469;27;45568;-78
2021/07/22 01:08:29;;;;;;;;;18.75;15.75;;;;;;;;5041565;27;46157;-78
2021/07/22 01:10:54;;;;;;;;;26.67;17.00;;;;;;;;5019418;27;45628;-77
2021/07/22 01:13:20;;;;;;;;;19.00;16.00;;;;;;;;5033275;27;45490;-78
2021/07/22 01:15:45;;;;;;;;;19.67;14.00;;;;;;;;5035687;28;45400;-78
2021/07/22 01:18:10;;;;;;;;;19.00;16.75;;;;;;;;5038381;27;46345;-78
2021/07/22 01:20:35;;;;;;;;;20.33;17.00;;;;;;;;5031567;27;45289;-77
2021/07/22 01:23:01;;;;;;;;;18.33;15.67;;;;;;;;5035199;27;45402;-78
2021/07/22 01:25:29;;;;;;;;;20.00;17.00;;;;;;;;5023620;27;45476;-77
2021/07/22 01:27:55;;;;;;;;;18.50;14.25;;;;;;;;5034432;28;46340;-78
2021/07/22 01:30:20;;;;;;;;;17.00;13.50;;;;;;;;5032854;28;46043;-77
2021/07/22 01:32:46;;;;;;;;;17.00;15.67;;;;;;;;5016874;27;45335;-77
2021/07/22 01:35:12;;;;;;;;;18.00;16.00;;;;;;;;5035772;28;45393;-78
2021/07/22 01:37:38;;;;;;;;;20.00;18.25;;;;;;;;5036680;27;46507;-77
2021/07/22 01:40:03;;;;;;;;;16.75;16.25;;;;;;;;5034344;28;45590;-77
2021/07/22 01:42:30;;;;;;;;;18.00;15.25;;;;;;;;5030421;27;45466;-78
2021/07/22 01:44:56;;;;;;;;;17.50;17.25;;;;;;;;5032580;27;45513;-79
2021/07/22 01:47:21;;;;;;;;;17.00;14.33;;;;;;;;5036716;27;46464;-78
2021/07/22 01:49:46;;;;;;;;;16.67;16.67;;;;;;;;5033233;27;45446;-78
2021/07/22 01:52:11;;;;;;;;;15.67;15.67;;;;;;;;5042277;27;45526;-78
2021/07/22 01:54:36;;;;;;;;;17.67;14.67;;;;;;;;5041861;27;45324;-78
2021/07/22 01:57:02;;;;;;;;;20.33;16.33;;;;;;;;5031199;27;45243;-78
2021/07/22 01:59:35;;;;;;;;;21.25;17.00;;;;;;;;5036928;27;45367;-78
2021/07/22 02:02:00;;;;;;;;;21.50;18.00;;;;;;;;5035458;27;45634;-77
2021/07/22 02:04:26;;;;;;;;;17.75;17.50;;;;;;;;5033533;27;45475;-78
2021/07/22 02:06:51;;;;;;;;;18.33;17.00;;;;;;;;5036780;28;45508;-77
2021/07/22 02:09:16;;;;;;;;;16.00;15.33;;;;;;;;5015904;28;45568;-78
2021/07/22 02:11:41;;;;;;;;;21.75;16.50;;;;;;;;5022823;27;45440;-77
2021/07/22 02:14:06;;;;;;;;;20.33;15.33;;;;;;;;5036776;27;45545;-77
2021/07/22 02:16:32;;;;;;;;;16.00;16.00;;;;;;;;5040635;27;46081;-78
2021/07/22 02:18:57;;;;;;;;;20.33;16.67;;;;;;;;5041298;28;45476;-78
2021/07/22 02:21:22;;;;;;;;;22.67;17.33;;;;;;;;5033963;27;45431;-80
2021/07/22 02:23:47;;;;;;;;;19.67;16.33;;;;;;;;5031966;27;45412;-80
2021/07/22 02:26:12;;;;;;;;;19.67;17.67;;;;;;;;5035494;27;45339;-77
2021/07/22 02:28:38;;;;;;;;;17.67;17.67;;;;;;;;5037978;27;45482;-76
2021/07/22 02:31:03;;;;;;;;;18.50;16.25;;;;;;;;5015992;28;45642;-78
2021/07/22 02:33:28;;;;;;;;;18.33;16.67;;;;;;;;5018830;27;45469;-79
2021/07/22 02:35:57;;;;;;;;;17.00;15.33;;;;;;;;5035793;27;46139;-78
2021/07/22 02:38:22;;;;;;;;;20.25;16.50;;;;;;;;5035910;27;45892;-78
2021/07/22 02:40:47;;;;;;;;;20.67;18.00;;;;;;;;5036255;27;45456;-79
2021/07/22 02:43:12;;;;;;;;;18.33;17.00;;;;;;;;5035380;27;45378;-79
2021/07/22 02:45:38;;;;;;;;;20.00;14.67;;;;;;;;5033138;28;45772;-78
2021/07/22 02:48:03;;;;;;;;;19.50;16.50;;;;;;;;5028748;27;45453;-78
2021/07/22 02:50:29;;;;;;;;;14.00;12.50;;;;;;;;5017597;28;45610;-78
2021/07/22 02:52:54;;;;;;;;;22.00;14.00;;;;;;;;5018136;27;45467;-79
2021/07/22 02:55:19;;;;;;;;;17.00;14.67;;;;;;;;5033867;27;45550;-79
2021/07/22 02:57:44;;;;;;;;;24.50;18.00;;;;;;;;5017747;28;45446;-78
2021/07/22 03:00:10;;;;;;;;;23.33;18.33;;;;;;;;5030053;27;45422;-79
2021/07/22 03:02:35;;;;;;;;;20.50;13.25;;;;;;;;5037725;27;45542;-79
2021/07/22 03:05:00;;;;;;;;;16.00;13.00;;;;;;;;5042947;27;45938;-78
2021/07/22 03:07:26;;;;;;;;;26.33;18.00;;;;;;;;5036234;27;45416;-79
2021/07/22 03:09:51;;;;;;;;;18.75;16.50;;;;;;;;5021529;28;45488;-79
2021/07/22 03:12:16;;;;;;;;;18.25;14.00;;;;;;;;5026916;27;45632;-78
2021/07/22 03:14:42;;;;;;;;;20.67;18.00;;;;;;;;5038774;27;46124;-79
2021/07/22 03:17:07;;;;;;;;;16.75;15.00;;;;;;;;5020841;27;45409;-79
2021/07/22 03:19:32;;;;;;;;;22.67;18.00;;;;;;;;5035495;27;45691;-78
2021/07/22 03:21:57;;;;;;;;;17.75;16.50;;;;;;;;5036119;28;46098;-78
2021/07/22 03:24:25;;;;;;;;;16.33;15.33;;;;;;;;5031512;27;45885;-77
2021/07/22 03:26:50;;;;;;;;;23.00;15.75;;;;;;;;5035058;27;45452;-79
2021/07/22 03:29:15;;;;;;;;;18.00;15.00;;;;;;;;5048372;27;45470;-80
2021/07/22 03:31:41;;;;;;;;;15.67;14.33;;;;;;;;5036870;27;45684;-78
2021/07/22 03:34:06;;;;;;;;;19.67;18.00;;;;;;;;5032287;28;46458;-79
2021/07/22 03:36:31;;;;;;;;;18.67;14.67;;;;;;;;5042883;27;45635;-79
2021/07/22 03:38:57;;;;;;;;;20.50;15.75;;;;;;;;5028723;27;45403;-79
2021/07/22 03:41:24;;;;;;;;;22.33;15.00;;;;;;;;5036898;27;45542;-79
2021/07/22 03:43:50;;;;;;;;;18.25;18.25;;;;;;;;5032059;27;45473;-79
2021/07/22 03:46:16;;;;;;;;;18.33;16.00;;;;;;;;5031755;27;45433;-79
2021/07/22 03:48:41;;;;;;;;;19.50;16.00;;;;;;;;5032589;28;45252;-79
2021/07/22 03:51:06;;;;;;;;;18.67;17.33;;;;;;;;5025820;27;45279;-79
2021/07/22 03:53:32;;;;;;;;;15.00;14.50;;;;;;;;5034404;27;46365;-78
2021/07/22 03:55:59;;;;;;;;;17.00;17.00;;;;;;;;5016731;28;45424;-78
2021/07/22 03:58:24;;;;;;;;;19.00;13.25;;;;;;;;5032482;27;45450;-78
2021/07/22 04:00:49;;;;;;;;;17.33;15.00;;;;;;;;5028820;28;45360;-79
2021/07/22 04:03:15;;;;;;;;;19.00;15.33;;;;;;;;5030606;27;50748;-79
2021/07/22 04:05:40;;;;;;;;;20.33;17.33;;;;;;;;5041621;27;45318;-79
2021/07/22 04:08:05;;;;;;;;;20.33;17.67;;;;;;;;5033370;27;45438;-79
2021/07/22 04:10:30;;;;;;;;;17.67;15.33;;;;;;;;5016849;27;45581;-78
2021/07/22 04:12:59;;;;;;;;;17.33;17.33;;;;;;;;5030139;28;45516;-79
2021/07/22 04:15:25;;;;;;;;;20.00;17.25;;;;;;;;5015227;27;45273;-77
2021/07/22 04:17:50;;;;;;;;;20.25;18.25;;;;;;;;5034931;27;45404;-79
2021/07/22 04:20:16;;;;;;;;;25.00;17.25;;;;;;;;5036218;27;45455;-79
2021/07/22 04:22:41;;;;;;;;;22.25;18.75;;;;;;;;5029397;27;45446;-79
2021/07/22 04:25:07;;;;;;;;;19.33;19.33;;;;;;;;5034448;27;45659;-79
2021/07/22 04:27:32;;;;;;;;;19.50;18.00;;;;;;;;5031491;27;45406;-79
2021/07/22 04:30:00;;;;;;;;;17.67;16.33;;;;;;;;5014306;27;45998;-78
2021/07/22 04:32:26;;;;;;;;;19.75;16.50;;;;;;;;5034416;27;46201;-78
2021/07/22 04:34:51;;;;;;;;;20.33;16.00;;;;;;;;5035140;27;45585;-79
2021/07/22 04:37:16;;;;;;;;;15.67;14.33;;;;;;;;5039375;27;45409;-77
2021/07/22 04:39:41;;;;;;;;;25.00;21.00;;;;;;;;5009477;28;45797;-77
2021/07/22 04:42:06;;;;;;;;;20.67;17.33;;;;;;;;5007959;27;46077;-79
2021/07/22 04:44:32;;;;;;;;;19.75;16.25;;;;;;;;4985601;27;45588;-77
2021/07/22 04:46:58;;;;;;;;;19.00;18.33;;;;;;;;4987355;28;45429;-80
2021/07/22 04:49:23;;;;;;;;;23.75;17.25;;;;;;;;4993061;28;45654;-79
2021/07/22 04:51:48;;;;;;;;;16.00;14.67;;;;;;;;4988127;28;47105;-80
2021/07/22 04:54:13;;;;;;;;;20.67;17.67;;;;;;;;4984004;28;46177;-79
2021/07/22 04:56:39;;;;;;;;;23.00;19.67;;;;;;;;4990717;28;45545;-79
2021/07/22 04:59:04;;;;;;;;;22.33;16.67;;;;;;;;4989012;28;45511;-78
2021/07/22 05:01:29;;;;;;;;;21.33;17.00;;;;;;;;4995861;27;47433;-79
2021/07/22 05:03:54;;;;;;;;;20.67;18.00;;;;;;;;4987060;27;45470;-77
2021/07/22 05:06:19;;;;;;;;;20.33;17.33;;;;;;;;4990578;28;45559;-79
2021/07/22 05:08:45;;;;;;;;;20.00;17.67;;;;;;;;5006521;27;45506;-78
2021/07/22 05:11:10;;;;;;;;;18.33;16.33;;;;;;;;4978435;27;45548;-78
2021/07/22 05:13:39;;;;;;;;;20.50;20.00;;;;;;;;5015338;28;45434;-79
2021/07/22 05:16:04;;;;;;;;;21.75;18.50;;;;;;;;4982571;28;45491;-78
2021/07/22 05:18:30;;;;;;;;;22.25;20.75;;;;;;;;5001868;27;45503;-79
2021/07/22 05:20:55;;;;;;;;;16.00;16.00;;;;;;;;4995743;28;46211;-79
2021/07/22 05:23:20;;;;;;;;;19.67;17.33;;;;;;;;4988254;27;45469;-79
2021/07/22 05:25:48;;;;;;;;;21.33;19.67;;;;;;;;4984045;27;45682;-79
2021/07/22 05:28:14;;;;;;;;;22.50;18.50;;;;;;;;4991127;27;45357;-79
2021/07/22 05:30:39;;;;;;;;;23.33;20.00;;;;;;;;4987270;28;45993;-79
2021/07/22 05:33:05;;;;;;;;;18.00;18.00;;;;;;;;4977290;27;45633;-79
2021/07/22 05:35:31;;;;;;;;;21.25;19.25;;;;;;;;4984268;28;45439;-79
2021/07/22 05:37:56;;;;;;;;;25.50;20.50;;;;;;;;4984443;27;45330;-79
2021/07/22 05:40:21;;;;;;;;;24.33;18.67;;;;;;;;4990936;27;46409;-79
2021/07/22 05:42:49;;;;;;;;;21.33;18.67;;;;;;;;5028369;27;45508;-79
2021/07/22 05:45:14;;;;;;;;;23.50;19.00;;;;;;;;5031182;27;45447;-79
2021/07/22 05:47:39;;;;;;;;;23.25;18.50;;;;;;;;5043844;27;45530;-79
2021/07/22 05:50:04;;;;;;;;;20.33;17.67;;;;;;;;5035003;27;45902;-79
2021/07/22 05:52:30;;;;;;;;;19.00;15.75;;;;;;;;5032701;27;45346;-79
2021/07/22 05:54:56;;;;;;;;;21.25;17.75;;;;;;;;5033873;28;45378;-79
2021/07/22 05:57:21;;;;;;;;;24.00;18.75;;;;;;;;5032853;27;45488;-79
2021/07/22 05:59:46;;;;;;;;;23.67;18.67;;;;;;;;5032178;27;45649;-79
2021/07/22 06:02:12;;;;;;;;;23.33;20.33;;;;;;;;5040430;27;45918;-79
2021/07/22 06:04:37;;;;;;;;;19.00;15.33;;;;;;;;5033561;27;45545;-79
2021/07/22 06:07:03;;;;;;;;;23.00;16.67;;;;;;;;5033720;28;45507;-79
2021/07/22 06:09:28;;;;;;;;;18.50;16.50;;;;;;;;5031828;27;46246;-79
2021/07/22 06:11:54;;;;;;;;;23.33;17.00;;;;;;;;5012288;27;45487;-79
2021/07/22 06:14:19;;;;;;;;;20.00;18.25;;;;;;;;5023208;27;45511;-79
2021/07/22 06:16:44;;;;;;;;;20.67;20.00;;;;;;;;5033810;27;45389;-77
2021/07/22 06:19:09;;;;;;;;;19.67;16.00;;;;;;;;5035038;27;45388;-78
2021/07/22 06:21:35;;;;;;;;;23.67;18.67;;;;;;;;5090247;27;45464;-77
2021/07/22 06:24:00;;;;;;;;;21.33;18.00;;;;;;;;5028511;27;45604;-78
2021/07/22 06:26:25;;;;;;;;;21.00;17.00;;;;;;;;5036184;27;45333;-77
2021/07/22 06:28:50;;;;;;;;;20.67;20.67;;;;;;;;5035203;27;45719;-79
2021/07/22 06:31:15;;;;;;;;;21.00;19.33;;;;;;;;5016156;27;48792;-79
2021/07/22 06:33:41;;;;;;;;;23.00;19.67;;;;;;;;5032976;28;45450;-79
2021/07/22 06:36:06;;;;;;;;;20.33;18.33;;;;;;;;5033031;27;45471;-79
2021/07/22 06:38:33;;;;;;;;;20.67;14.67;;;;;;;;5040196;27;45314;-79
2021/07/22 06:40:58;;;;;;;;;22.75;17.00;;;;;;;;5014628;27;45910;-79
2021/07/22 06:43:23;;;;;;;;;18.00;18.00;;;;;;;;5025327;27;45937;-80
2021/07/22 06:45:49;;;;;;;;;20.75;18.25;;;;;;;;5031608;27;45467;-79
2021/07/22 06:48:14;;;;;;;;;17.00;16.00;;;;;;;;5032538;27;46151;-79
2021/07/22 06:50:39;;;;;;;;;21.67;17.33;;;;;;;;5032751;27;45378;-79
2021/07/22 06:53:05;;;;;;;;;21.67;21.33;;;;;;;;5034680;27;45385;-80
2021/07/22 06:55:31;;;;;;;;;20.25;16.75;;;;;;;;5011877;27;45414;-79
2021/07/22 06:57:56;;;;;;;;;21.25;16.75;;;;;;;;5040232;27;46079;-79
2021/07/22 07:00:22;;;;;;;;;22.00;17.00;;;;;;;;5038593;27;45531;-79
2021/07/22 07:02:48;;;;;;;;;20.00;17.75;;;;;;;;5031565;27;45482;-80
2021/07/22 07:05:13;;;;;;;;;22.00;18.00;;;;;;;;5034451;27;45442;-79
2021/07/22 07:07:38;;;;;;;;;21.00;20.00;;;;;;;;5034215;27;45381;-79
2021/07/22 07:10:03;;;;;;;;;19.67;17.67;;;;;;;;5032204;27;45417;-80
2021/07/22 07:12:29;;;;;;;;;25.00;19.75;;;;;;;;5034431;27;45799;-79
2021/07/22 07:14:54;;;;;;;;;18.00;16.33;;;;;;;;5035439;27;45559;-79
2021/07/22 07:17:19;;;;;;;;;18.33;16.33;;;;;;;;5034210;27;46222;-79
2021/07/22 07:19:44;;;;;;;;;17.75;17.00;;;;;;;;5030708;27;45850;-79
2021/07/22 07:22:10;;;;;;;;;20.33;17.00;;;;;;;;5032434;28;45920;-80
2021/07/22 07:24:35;;;;;;;;;23.75;22.00;;;;;;;;5036053;28;45725;-79
2021/07/22 07:27:00;;;;;;;;;21.00;18.67;;;;;;;;5027467;27;45450;-79
2021/07/22 07:29:25;;;;;;;;;21.33;17.33;;;;;;;;5035069;27;45471;-78
2021/07/22 07:31:51;;;;;;;;;20.75;18.00;;;;;;;;5032769;27;45317;-79
2021/07/22 07:34:16;;;;;;;;;19.50;18.50;;;;;;;;5032004;27;45329;-79
2021/07/22 07:36:44;;;;;;;;;23.00;19.33;;;;;;;;5024355;27;48256;-79
2021/07/22 07:39:10;;;;;;;;;21.25;20.25;;;;;;;;5084590;27;45432;-79
2021/07/22 07:41:35;;;;;;;;;22.75;19.00;;;;;;;;5033879;27;45436;-78
2021/07/22 07:44:01;;;;;;;;;19.33;18.33;;;;;;;;5032733;27;45641;-79
2021/07/22 07:46:26;;;;;;;;;20.33;18.67;;;;;;;;5043787;27;45972;-79
2021/07/22 07:48:51;;;;;;;;;19.67;16.67;;;;;;;;5044054;28;45700;-79
2021/07/22 07:51:17;;;;;;;;;17.00;17.00;;;;;;;;5029681;27;45645;-79
2021/07/22 07:53:42;;;;;;;;;14.00;14.00;;;;;;;;5024381;27;46730;-82
2021/07/22 07:56:07;;;;;;;;;18.33;13.67;;;;;;;;5030417;27;45854;-80
2021/07/22 07:58:33;;;;;;;;;16.00;16.00;;;;;;;;5023842;27;45545;-79
2021/07/22 08:00:58;;;;;;;;;19.00;16.67;;;;;;;;5012519;28;45456;-79
2021/07/22 08:03:24;;;;;;;;;16.33;16.00;;;;;;;;5021953;27;45364;-78
2021/07/22 08:05:51;;;;;;;;;17.50;17.00;;;;;;;;5017091;27;46407;-79
2021/07/22 08:08:16;;;;;;;;;16.75;15.75;;;;;;;;5023639;27;45317;-79
2021/07/22 08:10:41;;;;;;;;;17.00;16.00;;;;;;;;5040540;27;45578;-83
2021/07/22 08:13:07;;;;;;;;;15.67;14.33;;;;;;;;5025881;27;45450;-78
2021/07/22 08:15:32;;;;;;;;;15.75;14.50;;;;;;;;5018574;27;45531;-78
2021/07/22 08:17:57;;;;;;;;;20.00;16.25;;;;;;;;5012957;27;46235;-78
2021/07/22 08:20:23;;;;;;;;;16.67;15.00;;;;;;;;5030652;27;45295;-79
2021/07/22 08:22:48;;;;;;;;;18.00;15.67;;;;;;;;5021608;27;45442;-78
2021/07/22 08:25:13;;;;;;;;;20.00;16.00;;;;;;;;5020072;27;46155;-78
2021/07/22 08:27:38;;;;;;;;;17.25;15.50;;;;;;;;5024512;27;45349;-79
2021/07/22 08:30:04;;;;;;;;;17.00;15.33;;;;;;;;5021273;27;45299;-79
2021/07/22 08:32:29;;;;;;;;;15.25;14.25;;;;;;;;5027398;27;45415;-79
2021/07/22 08:34:55;;;;;;;;;18.00;15.67;;;;;;;;5005596;27;48623;-78
2021/07/22 08:37:20;;;;;;;;;19.00;17.00;;;;;;;;5026756;27;45413;-79
2021/07/22 08:39:45;;;;;;;;;18.33;12.33;;;;;;;;5027751;27;45840;-80
2021/07/22 08:42:11;;;;;;;;;21.00;16.75;;;;;;;;5009059;27;45432;-80
2021/07/22 08:44:38;;;;;;;;;15.75;14.75;;;;;;;;5028440;27;45446;-79
2021/07/22 08:47:04;;;;;;;;;18.25;16.00;;;;;;;;5017780;27;45958;-80
2021/07/22 08:49:31;;;;;;;;;20.75;15.25;;;;;;;;5094771;27;45882;-85
2021/07/22 08:51:57;;;;;;;;;19.00;16.75;;;;;;;;5025886;27;45219;-80
2021/07/22 08:54:23;;;;;;;;;17.25;16.50;;;;;;;;5029284;27;46165;-80
2021/07/22 08:56:48;;;;;;;;;18.00;15.00;;;;;;;;5010951;27;45382;-79
2021/07/22 08:59:15;;;;;;;;;18.25;15.50;;;;;;;;5045422;27;45506;-80
2021/07/22 09:01:42;;;;;;;;;16.00;14.50;;;;;;;;5013365;27;45666;-80
2021/07/22 09:04:07;;;;;;;;;19.50;15.00;;;;;;;;5023913;27;46525;-80
2021/07/22 09:06:33;;;;;;;;;19.00;16.67;;;;;;;;5027829;27;45473;-79
2021/07/22 09:09:10;;;;;;;;;18.67;15.67;;;;;;;;5020015;27;45481;-81
2021/07/22 09:11:35;;;;;;;;;18.75;15.75;;;;;;;;5027456;27;45387;-81
2021/07/22 09:14:07;;;;;;;;;16.00;15.00;;;;;;;;5034630;27;47302;-84
2021/07/22 09:16:36;;;;;;;;;16.00;15.50;;;;;;;;5019584;27;45615;-80
2021/07/22 09:19:02;;;;;;;;;17.25;15.00;;;;;;;;5027725;27;45645;-80
2021/07/22 09:21:27;;;;;;;;;21.00;19.50;;;;;;;;5023088;27;45485;-81
2021/07/22 09:24:01;;;;;;;;;18.67;18.67;;;;;;;;5030466;27;46028;-81
2021/07/22 09:26:30;;;;;;;;;16.25;15.00;;;;;;;;5037870;27;45619;-81
2021/07/22 09:29:05;;;;;;;;;19.50;17.00;;;;;;;;5023038;27;45530;-81
2021/07/22 09:31:31;;;;;;;;;19.50;17.75;;;;;;;;5058259;27;45464;-81
2021/07/22 09:33:56;;;;;;;;;19.25;17.25;;;;;;;;5035987;27;45862;-81
2021/07/22 09:36:21;;;;;;;;;16.25;15.75;;;;;;;;5053658;27;45421;-80
2021/07/22 09:38:47;;;;;;;;;18.33;16.33;;;;;;;;5025237;27;45405;-81
2021/07/22 09:41:19;;;;;;;;;18.50;16.25;;;;;;;;5030487;27;45385;-83
2021/07/22 09:43:44;;;;;;;;;22.00;18.75;;;;;;;;5033576;27;45723;-81
2021/07/22 09:46:09;;;;;;;;;21.25;18.50;;;;;;;;5007515;27;45523;-81
2021/07/22 09:48:35;;;;;;;;;21.00;16.67;;;;;;;;5030923;27;45491;-80
2021/07/22 09:51:00;;;;;;;;;19.75;17.75;;;;;;;;5036459;27;45392;-82
2021/07/22 09:53:27;;;;;;;;;17.50;15.75;;;;;;;;5019621;27;48258;-81
2021/07/22 09:55:54;;;;;;;;;16.25;14.50;;;;;;;;5009535;27;45771;-81
2021/07/22 09:58:19;;;;;;;;;17.50;15.50;;;;;;;;5037185;27;45484;-82
2021/07/22 10:00:47;;;;;;;;;21.00;18.67;;;;;;;;5029747;27;45524;-81
2021/07/22 10:03:13;;;;;;;;;15.00;13.50;;;;;;;;5029886;27;46012;-81
2021/07/22 10:05:39;;;;;;;;;18.50;17.75;;;;;;;;5033466;27;45989;-81
2021/07/22 10:08:06;;;;;;;;;19.25;16.00;;;;;;;;5031847;27;45642;-81
2021/07/22 10:10:32;;;;;;;;;17.75;15.50;;;;;;;;5035628;27;45628;-81
2021/07/22 10:12:58;;;;;;;;;16.50;14.25;;;;;;;;5044343;27;45929;-81
2021/07/22 10:15:27;;;;;;;;;18.75;16.00;;;;;;;;5027279;27;45621;-81
2021/07/22 10:17:53;;;;;;;;;15.75;15.75;;;;;;;;5027526;27;45609;-80
2021/07/22 10:20:18;;;;;;;;;15.75;12.00;;;;;;;;5071373;27;45655;-81
2021/07/22 10:22:45;;;;;;;;;15.75;14.50;;;;;;;;5033857;27;45409;-81
2021/07/22 10:25:14;;;;;;;;;18.25;16.50;;;;;;;;5008119;27;45835;-81
2021/07/22 10:27:42;;;;;;;;;16.50;16.00;;;;;;;;5024301;27;45323;-80
2021/07/22 10:30:09;;;;;;;;;14.00;13.50;;;;;;;;5013994;27;45647;-81
2021/07/22 10:32:34;;;;;;;;;18.00;15.25;;;;;;;;5036795;27;45719;-85
2021/07/22 10:35:00;;;;;;;;;14.00;14.00;;;;;;;;5025405;27;45349;-83
2021/07/22 10:37:26;;;;;;;;;18.50;13.50;;;;;;;;5025029;27;45507;-82
2021/07/22 10:39:57;;;;;;;;;14.67;12.33;;;;;;;;5025025;27;45460;-91
2021/07/22 10:42:39;;;;;;;;;14.25;11.50;;;;;;;;5042144;27;48084;-81
2021/07/22 10:45:19;;;;;;;;;18.50;14.75;;;;;;;;5024654;27;45638;-81
2021/07/22 10:47:59;;;;;;;;;79.00;72.00;;;;;;;;5020366;27;45523;-80
2021/07/22 10:50:37;;;;;;;;;225.75;185.50;;;;;;;;5026361;27;45305;-81
2021/07/22 10:53:02;;;;;;;;;153.50;130.75;;;;;;;;5028647;27;46066;-81
2021/07/22 10:55:40;;;;;;;;;73.00;59.00;;;;;;;;5006860;27;45423;-81
2021/07/22 10:58:25;;;;;;;;;29.00;25.25;;;;;;;;5026003;27;45506;-81
2021/07/22 11:00:51;;;;;;;;;38.25;32.50;;;;;;;;5021625;27;45485;-82
2021/07/22 11:03:39;;;;;;;;;25.50;23.50;;;;;;;;5024586;27;45467;-82
2021/07/22 11:06:09;;;;;;;;;21.25;18.00;;;;;;;;5022974;27;52354;-81
2021/07/22 11:08:38;;;;;;;;;17.25;16.75;;;;;;;;5026920;27;45291;-81
2021/07/22 11:11:12;;;;;;;;;14.75;13.50;;;;;;;;5027508;27;45445;-82
2021/07/22 11:13:41;;;;;;;;;14.75;14.75;;;;;;;;5024175;27;46178;-82
2021/07/22 11:16:07;;;;;;;;;20.00;16.25;;;;;;;;5030576;27;45601;-87
2021/07/22 11:18:44;;;;;;;;;13.50;13.50;;;;;;;;5060497;27;45566;-82
2021/07/22 11:21:11;;;;;;;;;16.50;14.00;;;;;;;;5053816;27;45489;-82
2021/07/22 11:23:36;;;;;;;;;15.00;15.00;;;;;;;;5030691;27;45479;-82
2021/07/22 11:26:02;;;;;;;;;16.25;13.75;;;;;;;;5025334;27;45429;-82
2021/07/22 11:28:27;;;;;;;;;17.00;15.67;;;;;;;;5026520;27;45311;-82
2021/07/22 11:31:08;;;;;;;;;16.00;13.00;;;;;;;;5048528;27;45685;-83
2021/07/22 11:33:34;;;;;;;;;14.50;13.25;;;;;;;;5035953;27;46275;-82
2021/07/22 11:36:01;;;;;;;;;15.25;14.00;;;;;;;;5064458;27;45744;-83
2021/07/22 11:38:27;;;;;;;;;15.00;12.00;;;;;;;;5026959;27;45706;-82
2021/07/22 11:40:53;;;;;;;;;13.75;13.25;;;;;;;;5020863;27;46146;-83
2021/07/22 11:43:31;;;;;;;;;12.50;11.25;;;;;;;;5023600;27;46078;-83
2021/07/22 11:45:56;;;;;;;;;13.00;11.00;;;;;;;;5050728;27;45482;-83
2021/07/22 11:48:22;;;;;;;;;16.67;14.33;;;;;;;;5022806;27;45295;-82
2021/07/22 11:50:57;;;;;;;;;16.00;13.25;;;;;;;;5020923;27;45529;-83
2021/07/22 11:53:22;;;;;;;;;15.75;14.00;;;;;;;;5014055;27;47378;-81
2021/07/22 11:55:47;;;;;;;;;12.00;10.33;;;;;;;;5031299;27;46681;-82
2021/07/22 11:58:14;;;;;;;;;16.50;12.50;;;;;;;;5013543;27;45460;-82
2021/07/22 12:00:39;;;;;;;;;11.25;11.25;;;;;;;;5032494;27;45609;-82
2021/07/22 12:03:05;;;;;;;;;15.25;11.50;;;;;;;;5018228;27;46207;-82
2021/07/22 12:05:31;;;;;;;;;15.00;13.25;;;;;;;;5034242;27;46294;-82
2021/07/22 12:08:12;;;;;;;;;13.75;12.75;;;;;;;;5017549;27;45542;-82
2021/07/22 12:10:37;;;;;;;;;13.75;11.25;;;;;;;;5009413;27;45580;-86
2021/07/22 12:13:03;;;;;;;;;14.25;12.50;;;;;;;;5056121;27;45644;-82
2021/07/22 12:15:29;;;;;;;;;12.00;10.75;;;;;;;;5018308;27;45590;-82
2021/07/22 12:17:55;;;;;;;;;13.25;11.25;;;;;;;;5036712;27;45635;-81
2021/07/22 12:20:20;;;;;;;;;16.75;12.50;;;;;;;;5020933;27;45695;-80
2021/07/22 12:22:45;;;;;;;;;15.50;12.75;;;;;;;;5016583;27;45608;-82
2021/07/22 12:25:11;;;;;;;;;13.67;13.67;;;;;;;;5008230;27;45787;-82
2021/07/22 12:27:37;;;;;;;;;12.75;10.75;;;;;;;;5025092;27;45595;-81
2021/07/22 12:30:02;;;;;;;;;16.50;13.50;;;;;;;;5012830;27;45463;-81
2021/07/22 12:32:29;;;;;;;;;11.33;11.00;;;;;;;;5025421;27;46586;-81
2021/07/22 12:34:55;;;;;;;;;13.00;11.75;;;;;;;;5038149;27;45696;-82
2021/07/22 12:37:20;;;;;;;;;16.00;13.25;;;;;;;;5030607;27;45332;-83
2021/07/22 12:39:45;;;;;;;;;15.50;13.00;;;;;;;;5049583;27;45470;-85
2021/07/22 12:42:12;;;;;;;;;12.67;10.67;;;;;;;;5032103;27;47438;-87
2021/07/22 12:44:44;;;;;;;;;17.75;13.50;;;;;;;;5030651;27;45945;-87
2021/07/22 12:47:28;;;;;;;;;12.25;12.25;;;;;;;;5025304;27;45296;-85
2021/07/22 12:49:53;;;;;;;;;18.00;13.00;;;;;;;;5021445;27;45799;-82
2021/07/22 12:52:18;;;;;;;;;14.50;13.00;;;;;;;;5034241;27;46439;-84
2021/07/22 12:54:43;;;;;;;;;12.00;12.00;;;;;;;;5015590;27;45799;-83
2021/07/22 12:57:09;;;;;;;;;10.33;10.33;;;;;;;;5024907;27;45535;-84
2021/07/22 12:59:34;;;;;;;;;15.25;13.25;;;;;;;;5028990;27;45416;-85
2021/07/22 13:01:59;;;;;;;;;14.50;13.25;;;;;;;;5021084;27;46685;-85
2021/07/22 13:04:25;;;;;;;;;13.25;11.25;;;;;;;;5029414;27;45313;-85
2021/07/22 13:06:52;;;;;;;;;16.00;14.00;;;;;;;;5023323;27;45311;-89
2021/07/22 13:09:17;;;;;;;;;12.25;11.50;;;;;;;;5074222;27;45471;-87
2021/07/22 13:11:43;;;;;;;;;13.25;13.25;;;;;;;;5062318;27;45694;-87
2021/07/22 13:14:08;;;;;;;;;17.33;16.00;;;;;;;;5024203;27;47824;-91
2021/07/22 13:16:33;;;;;;;;;17.00;14.00;;;;;;;;5033443;27;45564;-90
2021/07/22 13:18:58;;;;;;;;;20.00;14.00;;;;;;;;5047458;27;45418;-89
2021/07/22 13:21:26;;;;;;;;;17.00;14.67;;;;;;;;5034761;27;45383;-86
2021/07/22 13:23:52;;;;;;;;;18.00;15.25;;;;;;;;5029383;27;45975;-88
2021/07/22 13:26:17;;;;;;;;;15.50;12.50;;;;;;;;5017450;27;45523;-87
2021/07/22 13:28:47;;;;;;;;;13.75;13.00;;;;;;;;5018721;27;45418;-87
2021/07/22 13:31:12;;;;;;;;;15.50;11.50;;;;;;;;5024675;28;47300;-87
2021/07/22 13:33:38;;;;;;;;;17.00;14.67;;;;;;;;5024025;27;45524;-86
2021/07/22 13:36:04;;;;;;;;;13.33;12.33;;;;;;;;5022568;27;45550;-85
2021/07/22 13:38:32;;;;;;;;;14.00;11.75;;;;;;;;5026180;27;45500;-84
2021/07/22 13:40:58;;;;;;;;;13.75;13.00;;;;;;;;5043244;27;46457;-89
2021/07/22 13:43:23;;;;;;;;;16.50;14.00;;;;;;;;5039865;27;45430;-85
2021/07/22 13:45:48;;;;;;;;;14.75;13.75;;;;;;;;5024451;27;45427;-87
2021/07/22 13:48:13;;;;;;;;;14.00;14.00;;;;;;;;5035023;27;45349;-87
2021/07/22 13:50:40;;;;;;;;;16.00;15.00;;;;;;;;5040044;27;52523;-87
2021/07/22 13:53:05;;;;;;;;;13.75;13.75;;;;;;;;5028224;27;45749;-85
2021/07/22 13:55:30;;;;;;;;;12.50;11.25;;;;;;;;5024469;27;45500;-89
2021/07/22 13:57:56;;;;;;;;;17.33;13.33;;;;;;;;5018784;27;45326;-83
2021/07/22 14:00:21;;;;;;;;;13.50;13.50;;;;;;;;5026470;27;45433;-84
2021/07/22 14:02:46;;;;;;;;;15.50;13.50;;;;;;;;5028231;27;46400;-87
2021/07/22 14:05:12;;;;;;;;;13.75;13.00;;;;;;;;5032555;27;45403;-86
2021/07/22 14:07:37;;;;;;;;;11.00;10.75;;;;;;;;5032764;27;45309;-81
2021/07/22 14:10:03;;;;;;;;;16.67;14.67;;;;;;;;5021562;27;45359;-82